createdAt,value
2018-09-29T00:03:02.757Z,51.91
2018-09-29T00:08:06.294Z,51.87
2018-09-29T00:13:09.784Z,52.46
2018-09-29T00:18:13.194Z,52.46
2018-09-29T00:23:16.641Z,52.17
2018-09-29T00:28:20.068Z,52.24
2018-09-29T00:33:23.496Z,52.42
2018-09-29T00:38:26.914Z,52.42
2018-09-29T00:43:30.369Z,52.20
2018-09-29T00:48:33.945Z,52.32
2018-09-29T00:53:37.362Z,52.04
2018-09-29T00:58:40.848Z,52.37
2018-09-29T01:03:44.264Z,52.66
2018-09-29T01:08:47.682Z,53.34
2018-09-29T01:13:51.184Z,53.69
2018-09-29T01:18:54.605Z,54.05
2018-09-29T01:23:58.030Z,54.16
2018-09-29T01:29:01.493Z,54.61
2018-09-29T01:34:04.934Z,54.72
2018-09-29T01:39:09.715Z,54.61
2018-09-29T01:44:13.154Z,55.07
2018-09-29T01:49:16.677Z,55.24
2018-09-29T01:54:20.124Z,55.02
2018-09-29T01:59:23.565Z,55.16
2018-09-29T02:04:27.056Z,55.43
2018-09-29T02:09:30.509Z,55.40
2018-09-29T02:14:35.660Z,55.71
2018-09-29T02:19:39.131Z,55.69
2018-09-29T02:24:42.584Z,55.72
2018-09-29T02:29:46.037Z,56.03
2018-09-29T02:34:49.566Z,56.75
2018-09-29T02:39:53.016Z,56.28
2018-09-29T02:44:58.368Z,56.93
2018-09-29T02:50:01.806Z,56.53
2018-09-29T02:55:06.288Z,56.80
2018-09-29T03:00:09.727Z,57.12
2018-09-29T03:05:13.157Z,56.85
2018-09-29T03:10:16.592Z,57.29
2018-09-29T03:15:20.056Z,57.38
2018-09-29T03:20:23.602Z,56.80
2018-09-29T03:25:27.049Z,57.10
2018-09-29T03:30:30.535Z,57.64
2018-09-29T03:35:33.966Z,57.45
2018-09-29T03:40:37.480Z,57.66
2018-09-29T03:45:40.904Z,57.41
2018-09-29T03:50:44.323Z,57.84
2018-09-29T03:55:47.797Z,57.44
2018-09-29T04:00:51.263Z,57.91
2018-09-29T04:05:54.700Z,58.02
2018-09-29T04:10:58.212Z,58.26
2018-09-29T04:16:01.767Z,58.38
2018-09-29T04:21:05.269Z,58.11
2018-09-29T04:26:08.714Z,58.46
2018-09-29T04:31:12.159Z,58.37
2018-09-29T04:36:15.618Z,58.81
2018-09-29T04:41:19.036Z,58.71
2018-09-29T04:46:22.491Z,58.85
2018-09-29T04:51:25.940Z,58.68
2018-09-29T04:56:29.523Z,58.91
2018-09-29T05:01:33.007Z,58.33
2018-09-29T05:06:36.500Z,58.45
2018-09-29T05:11:39.924Z,59.02
2018-09-29T05:16:43.361Z,58.75
2018-09-29T05:21:46.824Z,58.99
2018-09-29T05:26:50.240Z,58.91
2018-09-29T05:31:54.699Z,59.37
2018-09-29T05:36:58.114Z,59.16
2018-09-29T05:42:01.606Z,59.27
2018-09-29T05:47:05.054Z,59.63
2018-09-29T05:52:08.543Z,59.21
2018-09-29T05:57:11.974Z,59.52
2018-09-29T06:02:15.473Z,59.95
2018-09-29T06:07:18.978Z,59.92
2018-09-29T06:12:22.418Z,59.60
2018-09-29T06:17:25.888Z,59.46
2018-09-29T06:22:29.373Z,59.90
2018-09-29T06:27:33.069Z,59.64
2018-09-29T06:32:36.553Z,59.13
2018-09-29T06:37:39.973Z,59.18
2018-09-29T06:42:43.514Z,59.13
2018-09-29T06:47:47.088Z,58.59
2018-09-29T06:52:50.574Z,58.08
2018-09-29T06:57:54.124Z,58.01
2018-09-29T07:02:57.692Z,46.81
2018-09-29T07:08:01.192Z,49.67
2018-09-29T07:13:04.692Z,50.71
2018-09-29T07:18:08.156Z,50.24
2018-09-29T07:23:11.701Z,48.37
2018-09-29T07:28:15.122Z,48.48
2018-09-29T07:33:18.549Z,48.30
2018-09-29T07:38:22.005Z,48.53
2018-09-29T07:43:25.441Z,48.94
2018-09-29T07:48:28.897Z,49.40
2018-09-29T07:53:32.374Z,50.05
2018-09-29T07:58:35.817Z,49.71
2018-09-29T08:03:39.249Z,50.06
2018-09-29T08:08:42.714Z,49.99
2018-09-29T08:13:46.177Z,50.11
2018-09-29T08:18:49.606Z,50.11
2018-09-29T08:23:53.025Z,50.54
2018-09-29T08:28:56.465Z,50.48
2018-09-29T08:33:59.941Z,50.94
2018-09-29T08:39:04.204Z,50.94
2018-09-29T08:44:07.709Z,50.20
2018-09-29T08:49:11.211Z,50.61
2018-09-29T08:54:14.623Z,50.75
2018-09-29T08:59:18.026Z,50.71
2018-09-29T09:04:21.463Z,50.47
2018-09-29T09:09:24.992Z,50.56
2018-09-29T09:14:28.391Z,51.31
2018-09-29T09:19:31.898Z,50.68
2018-09-29T09:24:35.345Z,50.91
2018-09-29T09:29:38.800Z,51.08
2018-09-29T09:34:42.274Z,50.94
2018-09-29T09:39:45.740Z,51.36
2018-09-29T09:44:49.195Z,51.29
2018-09-29T09:49:52.638Z,51.25
2018-09-29T09:54:56.080Z,51.50
2018-09-29T09:59:59.506Z,51.19
2018-09-29T10:05:03.006Z,51.53
2018-09-29T10:10:06.746Z,52.04
2018-09-29T10:15:10.371Z,53.29
2018-09-29T10:20:13.815Z,53.79
2018-09-29T10:25:19.316Z,54.67
2018-09-29T10:30:22.801Z,55.64
2018-09-29T10:35:26.255Z,55.55
2018-09-29T10:40:29.705Z,46.41
2018-09-29T10:45:33.144Z,45.83
2018-09-29T10:50:37.495Z,46.58
2018-09-29T10:55:40.932Z,48.48
2018-09-29T11:00:44.364Z,48.23
2018-09-29T11:05:47.782Z,48.50
2018-09-29T11:10:51.206Z,48.18
2018-09-29T11:15:54.611Z,48.37
2018-09-29T11:20:58.115Z,48.88
2018-09-29T11:26:01.484Z,48.37
2018-09-29T11:31:04.900Z,48.58
2018-09-29T11:36:08.310Z,49.20
2018-09-29T11:41:11.967Z,49.24
2018-09-29T11:46:15.394Z,48.93
2018-09-29T11:51:18.805Z,49.18
2018-09-29T11:56:22.320Z,48.93
2018-09-29T12:01:25.955Z,48.86
2018-09-29T12:06:29.373Z,48.80
2018-09-29T12:11:32.825Z,49.52
2018-09-29T12:16:36.404Z,48.61
2018-09-29T12:21:39.842Z,48.82
2018-09-29T12:26:43.279Z,49.28
2018-09-29T12:31:46.795Z,48.69
2018-09-29T12:36:50.312Z,49.24
2018-09-29T12:41:53.892Z,48.62
2018-09-29T12:46:57.328Z,47.99
2018-09-29T12:52:01.731Z,48.23
2018-09-29T12:57:05.240Z,47.91
2018-09-29T13:02:08.710Z,48.27
2018-09-29T13:07:12.322Z,47.81
2018-09-29T13:12:16.037Z,47.59
2018-09-29T13:17:23.351Z,47.70
2018-09-29T13:28:04.958Z,48.96
2018-09-29T13:33:08.546Z,48.85
2018-09-29T13:38:12.018Z,49.19
2018-09-29T13:43:15.474Z,48.54
2018-09-29T13:48:18.958Z,48.27
2018-09-29T13:53:22.450Z,47.29
2018-09-29T13:58:25.915Z,47.38
2018-09-29T14:03:29.345Z,46.97
2018-09-29T14:08:32.860Z,47.35
2018-09-29T14:13:36.266Z,46.80
2018-09-29T14:18:39.712Z,46.70
2018-09-29T14:23:43.167Z,46.91
2018-09-29T14:28:46.601Z,47.09
2018-09-29T14:33:50.069Z,47.16
2018-09-29T14:38:53.941Z,46.39
2018-09-29T14:43:57.472Z,46.71
2018-09-29T14:49:00.952Z,46.43
2018-09-29T14:54:04.460Z,47.11
2018-09-29T14:59:07.943Z,47.18
2018-09-29T15:04:11.454Z,46.84
2018-09-29T15:09:14.881Z,47.20
2018-09-29T15:14:18.356Z,46.82
2018-09-29T15:19:22.528Z,47.19
2018-09-29T15:24:25.959Z,46.93
2018-09-29T15:29:29.401Z,47.36
2018-09-29T15:34:32.850Z,47.08
2018-09-29T15:39:36.317Z,46.85
2018-09-29T15:44:39.783Z,47.02
2018-09-29T15:49:43.273Z,46.45
2018-09-29T15:54:46.721Z,46.79
2018-09-29T15:59:50.201Z,46.89
2018-09-29T16:04:53.714Z,46.82
2018-09-29T16:09:57.136Z,46.40
2018-09-29T16:15:00.783Z,39.56
2018-09-29T16:20:04.270Z,44.13
2018-09-29T16:25:07.721Z,46.14
2018-09-29T16:30:11.304Z,46.13
2018-09-29T16:35:14.736Z,46.94
2018-09-29T16:40:18.165Z,47.46
2018-09-29T16:45:21.622Z,47.73
2018-09-29T16:50:25.077Z,48.06
2018-09-29T16:55:28.571Z,47.70
2018-09-29T17:00:32.017Z,47.66
2018-09-29T17:05:35.467Z,47.95
2018-09-29T17:10:38.880Z,48.03
2018-09-29T17:15:42.353Z,49.00
2018-09-29T17:20:45.762Z,48.83
2018-09-29T17:25:49.374Z,49.56
2018-09-29T17:30:52.846Z,49.73
2018-09-29T17:35:56.304Z,49.96
2018-09-29T17:40:59.767Z,49.61
2018-09-29T17:46:03.193Z,49.70
2018-09-29T17:51:06.646Z,49.89
2018-09-29T17:56:10.204Z,50.07
2018-09-29T18:01:13.669Z,50.13
2018-09-29T18:06:17.157Z,49.86
2018-09-29T18:11:20.680Z,50.47
2018-09-29T18:16:24.138Z,50.07
2018-09-29T18:21:27.585Z,50.71
2018-09-29T18:26:31.128Z,50.45
2018-09-29T18:31:34.641Z,50.63
2018-09-29T18:36:38.161Z,50.64
2018-09-29T18:41:41.585Z,51.19
2018-09-29T18:46:44.972Z,51.12
2018-09-29T18:51:48.409Z,51.47
2018-09-29T18:56:51.900Z,51.43
2018-09-29T19:01:55.339Z,51.42
2018-09-29T19:06:59.365Z,51.52
2018-09-29T19:12:03.187Z,51.70
2018-09-29T19:17:07.017Z,51.83
2018-09-29T19:22:10.743Z,52.14
2018-09-29T19:27:14.265Z,51.97
2018-09-29T19:32:17.773Z,52.41
2018-09-29T19:37:21.540Z,52.68
2018-09-29T20:04:55.410Z,52.65
2018-09-29T20:09:58.866Z,52.36
2018-09-29T20:15:02.469Z,52.14
2018-09-29T20:20:06.661Z,51.97
2018-09-29T20:59:09.413Z,51.41
2018-09-29T21:04:12.924Z,51.37
2018-09-29T21:09:16.440Z,50.73
2018-09-29T21:14:19.925Z,51.15
2018-09-29T21:19:23.357Z,50.75
2018-09-29T21:24:26.901Z,51.14
2018-09-29T21:29:30.344Z,51.25
2018-09-29T21:34:33.797Z,50.81
2018-09-29T21:39:37.299Z,50.71
2018-09-29T21:44:40.735Z,51.04
2018-09-29T21:49:44.177Z,51.25
2018-09-29T21:54:47.837Z,51.22
2018-09-29T21:59:51.281Z,51.09
2018-09-29T22:04:54.785Z,50.99
2018-09-29T22:09:58.198Z,51.31
2018-09-29T22:15:01.700Z,51.24
2018-09-29T22:20:06.341Z,51.52
2018-09-29T22:25:09.822Z,51.29
2018-09-29T22:35:15.843Z,51.73
2018-09-29T22:40:19.302Z,51.46
2018-09-29T22:45:22.789Z,51.64
2018-09-29T22:50:26.532Z,51.81
2018-09-29T22:55:30.018Z,51.40
2018-09-29T23:00:33.477Z,51.86
2018-09-29T23:05:36.961Z,51.41
2018-09-29T23:10:40.414Z,51.54
2018-09-29T23:15:43.854Z,51.89
2018-09-29T23:20:47.428Z,52.02
2018-09-29T23:25:50.861Z,51.88
2018-09-29T23:30:54.281Z,51.68
2018-09-29T23:35:57.785Z,52.03
2018-09-29T23:41:01.415Z,52.04
2018-09-29T23:46:04.978Z,51.86
2018-09-29T23:51:08.656Z,51.96
2018-09-29T23:56:12.163Z,51.49
